createdAt,value
2022-08-27T00:02:11.707Z,26.68
2022-08-27T00:04:38.836Z,26.68
2022-08-27T00:07:06.291Z,26.68
2022-08-27T00:09:33.012Z,26.67
2022-08-27T00:11:59.932Z,26.67
2022-08-27T00:14:28.015Z,26.68
2022-08-27T00:16:55.724Z,26.66
2022-08-27T00:19:22.550Z,26.59
2022-08-27T00:21:49.195Z,26.67
2022-08-27T00:24:15.958Z,26.67
2022-08-27T00:26:43.457Z,26.66
2022-08-27T00:29:10.573Z,26.65
2022-08-27T00:31:37.648Z,26.66
2022-08-27T00:34:05.244Z,26.65
2022-08-27T00:36:34.157Z,26.63
2022-08-27T00:39:00.760Z,26.64
2022-08-27T00:41:27.613Z,26.64
2022-08-27T00:43:57.760Z,26.62
2022-08-27T00:46:30.567Z,26.62
2022-08-27T00:49:02.653Z,26.61
2022-08-27T00:51:30.756Z,26.61
2022-08-27T00:53:58.951Z,26.61
2022-08-27T00:56:29.524Z,26.59
2022-08-27T00:58:56.981Z,26.59
2022-08-27T01:01:29.361Z,26.58
2022-08-27T01:04:00.690Z,26.59
2022-08-27T01:06:33.972Z,26.58
2022-08-27T01:09:12.164Z,26.58
2022-08-27T01:11:39.161Z,26.57
2022-08-27T01:14:06.730Z,26.56
2022-08-27T01:16:38.240Z,26.55
2022-08-27T01:19:09.670Z,26.55
2022-08-27T01:21:45.999Z,26.47
2022-08-27T01:24:24.727Z,26.53
2022-08-27T01:26:51.855Z,26.52
2022-08-27T01:29:18.866Z,26.53
2022-08-27T01:31:45.551Z,26.51
2022-08-27T01:34:12.406Z,26.51
2022-08-27T01:36:39.023Z,26.49
2022-08-27T01:39:05.695Z,26.48
2022-08-27T01:41:32.945Z,26.47
2022-08-27T01:43:59.786Z,26.40
2022-08-27T01:46:28.454Z,26.47
2022-08-27T01:48:55.963Z,26.38
2022-08-27T01:51:22.602Z,26.45
2022-08-27T01:53:49.787Z,26.44
2022-08-27T01:56:16.553Z,26.43
2022-08-27T01:58:44.255Z,26.43
2022-08-27T02:01:14.068Z,26.40
2022-08-27T02:03:41.433Z,26.41
2022-08-27T02:06:10.175Z,26.41
2022-08-27T02:08:37.749Z,26.38
2022-08-27T02:11:05.566Z,26.39
2022-08-27T02:13:32.181Z,26.34
2022-08-27T02:15:58.914Z,26.36
2022-08-27T02:18:25.723Z,26.35
2022-08-27T02:20:52.381Z,26.34
2022-08-27T02:23:19.175Z,26.34
2022-08-27T02:25:48.954Z,26.33
2022-08-27T02:28:16.326Z,26.30
2022-08-27T02:30:43.097Z,26.32
2022-08-27T02:33:09.987Z,26.31
2022-08-27T02:35:39.923Z,26.31
2022-08-27T02:38:07.927Z,26.30
2022-08-27T02:40:36.122Z,26.29
2022-08-27T02:43:03.116Z,26.28
2022-08-27T02:45:29.926Z,26.28
2022-08-27T02:47:56.662Z,26.27
2022-08-27T02:50:27.022Z,26.27
2022-08-27T02:52:54.785Z,26.19
2022-08-27T02:55:22.507Z,26.24
2022-08-27T02:57:49.192Z,26.24
2022-08-27T03:00:19.162Z,26.23
2022-08-27T03:02:45.890Z,26.21
2022-08-27T03:05:13.304Z,26.12
2022-08-27T03:07:40.432Z,26.18
2022-08-27T03:10:08.387Z,26.09
2022-08-27T03:12:36.366Z,26.17
2022-08-27T03:15:05.667Z,26.16
2022-08-27T03:17:51.011Z,26.14
2022-08-27T03:20:18.606Z,26.13
2022-08-27T03:22:45.930Z,26.04
2022-08-27T03:25:12.700Z,26.10
2022-08-27T03:27:39.944Z,26.10
2022-08-27T03:30:13.493Z,26.09
2022-08-27T03:32:40.195Z,26.08
2022-08-27T03:35:07.636Z,26.07
2022-08-27T03:37:35.064Z,26.07
2022-08-27T03:40:02.193Z,26.05
2022-08-27T03:42:28.873Z,26.05
2022-08-27T03:44:55.571Z,26.03
2022-08-27T03:47:23.754Z,26.04
2022-08-27T03:49:50.418Z,26.03
2022-08-27T03:52:17.460Z,26.04
2022-08-27T03:54:44.058Z,25.63
2022-08-27T03:57:11.033Z,26.03
2022-08-27T03:59:38.100Z,26.02
2022-08-27T04:02:05.352Z,26.02
2022-08-27T04:04:32.426Z,25.93
2022-08-27T04:06:59.966Z,25.99
2022-08-27T04:09:26.632Z,25.98
2022-08-27T04:11:53.496Z,25.99
2022-08-27T04:14:26.116Z,25.91
2022-08-27T04:16:56.199Z,25.97
2022-08-27T04:19:27.728Z,25.94
2022-08-27T04:22:02.571Z,25.94
2022-08-27T04:24:31.651Z,25.96
2022-08-27T04:27:02.815Z,25.89
2022-08-27T04:29:29.599Z,25.96
2022-08-27T04:31:57.896Z,25.97
2022-08-27T04:34:24.579Z,25.95
2022-08-27T04:36:51.443Z,25.97
2022-08-27T04:39:20.611Z,25.96
2022-08-27T04:41:50.497Z,25.97
2022-08-27T04:44:17.108Z,25.98
2022-08-27T04:46:46.026Z,25.97
2022-08-27T04:49:17.007Z,25.97
2022-08-27T04:51:43.618Z,25.97
2022-08-27T04:54:10.660Z,25.89
2022-08-27T04:56:37.941Z,25.97
2022-08-27T04:59:06.805Z,25.97
2022-08-27T05:01:33.788Z,25.99
2022-08-27T05:04:00.878Z,25.99
2022-08-27T05:06:28.127Z,25.99
2022-08-27T05:08:55.997Z,26.00
2022-08-27T05:11:25.914Z,26.00
2022-08-27T05:13:52.775Z,26.00
2022-08-27T05:16:22.370Z,26.01
2022-08-27T05:18:51.721Z,26.01
2022-08-27T05:21:20.176Z,26.02
2022-08-27T05:26:16.057Z,26.02
2022-08-27T05:28:42.947Z,26.02
2022-08-27T05:31:11.270Z,26.03
2022-08-27T05:33:39.880Z,26.03
2022-08-27T05:36:07.483Z,26.02
2022-08-27T05:38:34.669Z,26.01
2022-08-27T05:41:06.334Z,25.99
2022-08-27T05:43:33.310Z,26.00
2022-08-27T05:46:05.721Z,26.01
2022-08-27T05:50:49.024Z,26.02
2022-08-27T05:53:15.695Z,26.02
2022-08-27T05:55:45.535Z,26.03
2022-08-27T05:58:33.595Z,25.99
2022-08-27T06:01:10.091Z,26.04
2022-08-27T06:03:38.314Z,25.96
2022-08-27T06:06:11.240Z,26.06
2022-08-27T06:08:38.767Z,26.02
2022-08-27T06:11:07.472Z,26.07
2022-08-27T06:13:35.270Z,26.07
2022-08-27T06:16:08.815Z,26.08
2022-08-27T06:18:38.396Z,26.09
2022-08-27T06:21:06.494Z,26.07
2022-08-27T06:23:34.402Z,26.11
2022-08-27T06:26:05.628Z,26.12
2022-08-27T06:28:32.312Z,26.12
2022-08-27T06:31:06.934Z,26.13
2022-08-27T06:33:34.289Z,26.14
2022-08-27T06:36:06.326Z,26.16
2022-08-27T06:38:34.055Z,26.16
2022-08-27T06:41:04.290Z,25.85
2022-08-27T06:43:31.183Z,26.17
2022-08-27T06:45:57.842Z,26.18
2022-08-27T06:48:24.495Z,26.19
2022-08-27T06:50:51.151Z,26.20
2022-08-27T06:53:17.808Z,26.21
2022-08-27T06:55:51.218Z,26.22
2022-08-27T06:58:19.483Z,26.22
2022-08-27T07:00:48.999Z,26.23
2022-08-27T07:03:15.830Z,26.23
2022-08-27T07:05:42.494Z,26.24
2022-08-27T07:08:10.836Z,26.25
2022-08-27T07:10:38.180Z,26.27
2022-08-27T07:13:05.277Z,26.26
2022-08-27T07:15:32.964Z,26.30
2022-08-27T07:18:01.976Z,26.32
2022-08-27T07:20:31.931Z,26.31
2022-08-27T07:22:58.659Z,26.31
2022-08-27T07:25:26.503Z,26.26
2022-08-27T07:27:53.224Z,26.34
2022-08-27T07:30:19.784Z,26.36
2022-08-27T07:32:47.430Z,26.34
2022-08-27T07:35:14.308Z,26.37
2022-08-27T07:37:43.883Z,26.39
2022-08-27T07:40:14.290Z,26.40
2022-08-27T07:43:01.026Z,26.41
2022-08-27T07:45:29.705Z,26.41
2022-08-27T07:47:56.492Z,26.42
2022-08-27T07:50:23.629Z,26.34
2022-08-27T07:52:51.416Z,26.43
2022-08-27T07:55:18.812Z,26.44
2022-08-27T07:57:45.428Z,26.44
2022-08-27T08:00:13.151Z,26.46
2022-08-27T08:02:42.226Z,26.47
2022-08-27T08:05:10.076Z,26.47
2022-08-27T08:09:51.800Z,26.48
2022-08-27T08:12:18.474Z,26.49
2022-08-27T08:14:57.831Z,26.50
2022-08-27T08:17:25.665Z,26.50
2022-08-27T08:20:17.628Z,26.51
2022-08-27T08:22:40.619Z,26.52
2022-08-27T08:25:07.590Z,26.53
2022-08-27T08:27:41.067Z,26.54
2022-08-27T08:30:09.557Z,26.54
2022-08-27T08:32:36.820Z,26.55
2022-08-27T08:35:04.404Z,26.56
2022-08-27T08:37:31.293Z,26.56
2022-08-27T08:39:57.981Z,26.56
2022-08-27T08:42:42.543Z,26.57
2022-08-27T08:45:19.559Z,26.58
2022-08-27T08:48:06.117Z,26.58
2022-08-27T08:50:56.296Z,26.60
2022-08-27T08:53:41.016Z,26.59
2022-08-27T08:56:15.258Z,26.60
2022-08-27T08:58:48.015Z,26.60
2022-08-27T09:01:18.644Z,26.62
2022-08-27T09:03:53.547Z,26.61
2022-08-27T09:06:38.120Z,26.63
2022-08-27T09:09:16.887Z,26.64
2022-08-27T09:11:52.231Z,26.65
2022-08-27T09:14:40.611Z,26.64
2022-08-27T09:17:12.071Z,26.65
2022-08-27T09:19:38.962Z,26.67
2022-08-27T09:22:28.490Z,26.58
2022-08-27T09:25:10.386Z,26.68
2022-08-27T09:27:41.840Z,26.67
2022-08-27T09:30:20.766Z,26.67
2022-08-27T09:33:01.162Z,26.69
2022-08-27T09:35:34.559Z,26.70
2022-08-27T09:38:02.979Z,26.70
2022-08-27T09:40:40.932Z,26.71
2022-08-27T09:43:29.964Z,26.71
2022-08-27T09:46:05.260Z,26.73
2022-08-27T09:48:37.389Z,26.73
2022-08-27T09:51:13.950Z,26.73
2022-08-27T09:53:50.387Z,26.74
2022-08-27T09:56:30.694Z,26.75
2022-08-27T09:59:03.500Z,26.75
2022-08-27T10:01:33.097Z,26.75
2022-08-27T10:04:15.264Z,26.74
2022-08-27T10:06:50.418Z,26.76
2022-08-27T10:09:33.022Z,26.76
2022-08-27T10:12:06.605Z,26.78
2022-08-27T10:14:45.228Z,26.78
2022-08-27T10:17:37.940Z,26.79
2022-08-27T10:20:40.968Z,26.79
2022-08-27T10:23:14.917Z,26.80
2022-08-27T10:25:58.520Z,26.80
2022-08-27T10:28:40.016Z,26.80
2022-08-27T10:31:09.451Z,26.81
2022-08-27T10:34:03.832Z,26.82
2022-08-27T10:36:49.134Z,26.82
2022-08-27T10:39:38.012Z,26.85
2022-08-27T10:42:04.654Z,26.84
2022-08-27T10:44:50.981Z,26.84
2022-08-27T10:47:50.028Z,26.86
2022-08-27T10:50:35.176Z,26.86
2022-08-27T10:53:08.559Z,26.86
2022-08-27T10:55:45.920Z,26.87
2022-08-27T10:58:34.210Z,26.88
2022-08-27T11:01:17.233Z,26.88
2022-08-27T11:03:50.435Z,26.89
2022-08-27T11:07:03.583Z,26.89
2022-08-27T11:09:36.427Z,26.90
2022-08-27T11:12:14.234Z,26.91
2022-08-27T11:14:54.429Z,26.92
2022-08-27T11:17:32.669Z,26.92
2022-08-27T11:20:04.524Z,26.94
2022-08-27T11:22:42.383Z,26.95
2022-08-27T11:25:26.135Z,26.87
2022-08-27T11:27:56.363Z,26.95
2022-08-27T11:30:38.547Z,26.97
2022-08-27T11:37:58.723Z,26.99
2022-08-27T11:40:51.026Z,27.00
2022-08-27T11:43:22.519Z,27.01
2022-08-27T11:45:58.942Z,27.04
2022-08-27T11:48:29.732Z,27.06
2022-08-27T11:50:59.323Z,27.08
2022-08-27T11:53:47.693Z,27.06
2022-08-27T11:56:36.701Z,27.12
2022-08-27T11:59:21.716Z,27.13
2022-08-27T12:01:51.584Z,27.14
2022-08-27T12:04:32.696Z,27.16
2022-08-27T12:07:05.085Z,27.18
2022-08-27T12:09:51.516Z,27.19
2022-08-27T12:12:42.119Z,27.19
2022-08-27T12:15:17.785Z,27.19
2022-08-27T12:17:58.394Z,27.20
2022-08-27T12:20:43.978Z,27.20
2022-08-27T12:23:42.358Z,27.18
2022-08-27T12:26:42.793Z,27.20
2022-08-27T12:29:18.397Z,27.19
2022-08-27T12:31:48.694Z,27.21
2022-08-27T12:34:28.738Z,27.20
2022-08-27T12:36:56.299Z,27.19
2022-08-27T12:39:28.680Z,27.21
2022-08-27T12:41:55.761Z,27.22
2022-08-27T12:44:27.480Z,27.23
2022-08-27T12:47:13.300Z,27.23
2022-08-27T12:49:55.759Z,27.24
2022-08-27T12:52:56.655Z,27.24
2022-08-27T12:55:51.176Z,27.25
2022-08-27T12:58:36.862Z,27.26
2022-08-27T13:01:45.459Z,27.25
2022-08-27T13:04:33.793Z,27.26
2022-08-27T13:07:00.481Z,27.27
2022-08-27T13:09:33.545Z,27.21
2022-08-27T13:12:02.640Z,27.27
2022-08-27T13:14:36.767Z,27.29
2022-08-27T13:17:09.081Z,27.29
2022-08-27T13:19:44.075Z,27.26
2022-08-27T13:22:10.833Z,27.30
2022-08-27T13:24:49.712Z,27.30
2022-08-27T13:27:16.484Z,27.31
2022-08-27T13:29:43.697Z,27.32
2022-08-27T13:32:14.083Z,27.32
2022-08-27T13:34:41.531Z,27.32
2022-08-27T13:37:24.680Z,27.34
2022-08-27T13:39:56.658Z,27.34
2022-08-27T13:42:25.153Z,27.34
2022-08-27T13:44:56.523Z,27.35
2022-08-27T13:47:26.218Z,27.34
2022-08-27T13:50:13.858Z,27.33
2022-08-27T13:53:04.638Z,27.32
2022-08-27T13:55:33.323Z,27.35
2022-08-27T13:58:00.452Z,27.35
2022-08-27T14:00:33.495Z,27.36
2022-08-27T14:03:03.594Z,27.36
2022-08-27T14:05:33.878Z,27.37
2022-08-27T14:08:13.803Z,27.38
2022-08-27T14:10:45.071Z,27.38
2022-08-27T14:13:23.672Z,27.38
2022-08-27T14:15:55.652Z,27.39
2022-08-27T14:18:57.899Z,27.33
2022-08-27T14:21:22.652Z,27.40
2022-08-27T14:23:49.528Z,27.40
2022-08-27T14:26:17.389Z,27.40
2022-08-27T14:28:45.034Z,27.30
2022-08-27T14:31:13.325Z,27.40
2022-08-27T14:33:40.240Z,27.38
2022-08-27T14:36:08.219Z,27.41
2022-08-27T14:38:37.654Z,27.41
2022-08-27T14:41:07.639Z,27.39
2022-08-27T14:43:34.733Z,27.31
2022-08-27T14:46:02.871Z,27.41
2022-08-27T14:48:33.528Z,27.41
2022-08-27T14:51:09.331Z,27.35
2022-08-27T14:55:59.368Z,27.42
2022-08-27T14:58:26.147Z,27.42
2022-08-27T15:00:55.316Z,27.43
2022-08-27T15:03:25.461Z,27.43
2022-08-27T15:05:56.190Z,27.39
2022-08-27T15:08:27.574Z,27.43
2022-08-27T15:10:57.993Z,27.44
2022-08-27T15:13:24.868Z,27.45
2022-08-27T15:15:52.623Z,27.46
2022-08-27T15:18:20.003Z,27.46
2022-08-27T15:20:47.208Z,27.46
2022-08-27T15:23:15.546Z,27.48
2022-08-27T15:25:45.090Z,27.48
2022-08-27T15:28:11.968Z,27.48
2022-08-27T15:33:06.025Z,27.49
2022-08-27T15:35:32.881Z,27.49
2022-08-27T15:38:00.728Z,27.50
2022-08-27T15:40:30.842Z,27.50
2022-08-27T15:43:02.129Z,27.50
2022-08-27T15:45:31.495Z,27.50
2022-08-27T15:47:59.666Z,27.52
2022-08-27T15:50:28.328Z,27.53
2022-08-27T15:52:58.266Z,27.54
2022-08-27T15:55:28.900Z,27.54
2022-08-27T15:57:55.601Z,27.54
2022-08-27T16:00:25.659Z,27.55
2022-08-27T16:02:52.840Z,27.56
2022-08-27T16:05:22.660Z,27.51
2022-08-27T16:10:11.892Z,27.48
2022-08-27T16:12:38.469Z,27.58
2022-08-27T16:15:05.822Z,27.57
2022-08-27T16:17:33.167Z,27.58
2022-08-27T16:20:00.185Z,27.59
2022-08-27T16:22:26.856Z,27.58
2022-08-27T16:24:53.456Z,27.59
2022-08-27T16:27:20.445Z,27.60
2022-08-27T16:29:47.008Z,27.59
2022-08-27T16:32:17.244Z,27.59
2022-08-27T16:34:47.277Z,27.59
2022-08-27T16:37:13.967Z,27.60
2022-08-27T16:39:44.053Z,27.60
2022-08-27T16:42:10.684Z,27.60
2022-08-27T16:44:38.289Z,27.60
2022-08-27T16:47:06.201Z,27.53
2022-08-27T16:49:51.521Z,27.60
2022-08-27T16:52:20.300Z,27.59
2022-08-27T16:54:46.998Z,27.60
2022-08-27T16:57:13.689Z,27.60
2022-08-27T16:59:42.584Z,27.57
2022-08-27T17:02:17.563Z,27.61
2022-08-27T17:04:48.017Z,27.61
2022-08-27T17:07:25.829Z,27.61
2022-08-27T17:09:52.788Z,27.61
2022-08-27T17:12:27.193Z,27.60
2022-08-27T17:14:55.799Z,27.61
2022-08-27T17:17:22.332Z,27.61
2022-08-27T17:19:48.892Z,27.61
2022-08-27T17:22:15.640Z,27.61
2022-08-27T17:24:42.277Z,27.62
2022-08-27T17:27:09.161Z,27.62
2022-08-27T17:29:36.862Z,27.59
2022-08-27T17:32:06.832Z,27.61
2022-08-27T17:34:33.457Z,27.62
2022-08-27T17:37:00.560Z,27.62
2022-08-27T17:39:30.497Z,27.62
2022-08-27T17:41:57.324Z,27.62
2022-08-27T17:44:25.872Z,27.63
2022-08-27T17:46:54.531Z,27.62
2022-08-27T17:49:21.637Z,27.62
2022-08-27T17:51:49.969Z,27.61
2022-08-27T17:54:21.125Z,27.59
2022-08-27T17:56:47.695Z,27.62
2022-08-27T17:59:14.337Z,27.62
2022-08-27T18:01:41.339Z,27.62
2022-08-27T18:04:08.540Z,27.62
2022-08-27T18:06:35.253Z,27.62
2022-08-27T18:09:03.668Z,27.62
2022-08-27T18:11:30.300Z,27.63
2022-08-27T18:14:04.075Z,27.62
2022-08-27T18:16:32.179Z,27.55
2022-08-27T18:18:58.759Z,27.62
2022-08-27T18:21:26.197Z,27.62
2022-08-27T18:23:53.816Z,27.62
2022-08-27T18:26:23.234Z,27.62
2022-08-27T18:28:49.980Z,27.62
2022-08-27T18:31:19.805Z,27.62
2022-08-27T18:33:47.032Z,27.62
2022-08-27T18:36:14.976Z,27.63
2022-08-27T18:38:42.915Z,27.63
2022-08-27T18:41:09.589Z,27.63
2022-08-27T18:43:36.521Z,27.63
2022-08-27T18:46:04.560Z,27.63
2022-08-27T18:48:32.448Z,27.63
2022-08-27T18:51:01.604Z,27.56
2022-08-27T18:53:32.912Z,27.57
2022-08-27T18:56:00.783Z,27.57
2022-08-27T18:58:27.944Z,27.62
2022-08-27T19:00:58.887Z,27.61
2022-08-27T19:03:29.319Z,27.63
2022-08-27T19:05:56.294Z,27.63
2022-08-27T19:08:23.893Z,27.63
2022-08-27T19:13:13.164Z,27.64
2022-08-27T19:15:44.552Z,27.63
2022-08-27T19:18:11.649Z,27.63
2022-08-27T19:20:38.772Z,27.63
2022-08-27T19:23:05.366Z,27.63
2022-08-27T19:25:32.384Z,27.61
2022-08-27T19:27:59.215Z,27.63
2022-08-27T19:30:25.886Z,27.63
2022-08-27T19:32:53.887Z,27.60
2022-08-27T19:35:21.717Z,27.59
2022-08-27T19:37:53.025Z,27.55
2022-08-27T19:40:21.916Z,27.55
2022-08-27T19:42:49.575Z,27.56
2022-08-27T19:47:36.411Z,27.46
2022-08-27T19:50:04.083Z,27.57
2022-08-27T19:52:30.633Z,27.57
2022-08-27T19:55:13.191Z,27.59
2022-08-27T19:57:41.171Z,27.59
2022-08-27T20:00:09.383Z,27.59
2022-08-27T20:02:38.855Z,27.59
2022-08-27T20:07:35.065Z,27.54
2022-08-27T20:10:08.569Z,27.59
2022-08-27T20:12:36.776Z,27.59
2022-08-27T20:15:06.173Z,27.52
2022-08-27T20:17:33.465Z,27.57
2022-08-27T20:20:00.605Z,27.53
2022-08-27T20:22:27.915Z,27.58
2022-08-27T20:24:54.579Z,27.58
2022-08-27T20:27:21.254Z,27.57
2022-08-27T20:29:47.845Z,27.58
2022-08-27T20:32:14.621Z,27.58
2022-08-27T20:34:41.489Z,27.58
2022-08-27T20:37:08.208Z,27.58
2022-08-27T20:39:34.888Z,27.57
2022-08-27T20:42:01.987Z,27.58
2022-08-27T20:44:29.151Z,27.58
2022-08-27T20:46:59.188Z,27.59
2022-08-27T20:49:27.902Z,27.59
2022-08-27T20:52:03.972Z,27.60
2022-08-27T20:54:32.203Z,27.60
2022-08-27T20:56:58.871Z,27.61
2022-08-27T20:59:44.964Z,27.62
2022-08-27T21:02:14.033Z,27.60
2022-08-27T21:04:45.913Z,27.61
2022-08-27T21:07:16.304Z,27.62
2022-08-27T21:09:55.962Z,27.62
2022-08-27T21:12:24.548Z,27.58
2022-08-27T21:14:51.179Z,27.61
2022-08-27T21:17:25.234Z,27.62
2022-08-27T21:19:52.468Z,27.59
2022-08-27T21:22:19.939Z,27.62
2022-08-27T21:24:47.554Z,27.62
2022-08-27T21:27:18.366Z,27.62
2022-08-27T21:32:03.648Z,27.62
2022-08-27T21:34:31.048Z,27.62
2022-08-27T21:36:58.297Z,27.62
2022-08-27T21:39:24.952Z,27.62
2022-08-27T21:41:51.525Z,27.62
2022-08-27T21:44:18.181Z,27.61
2022-08-27T21:46:44.788Z,27.61
2022-08-27T21:49:11.412Z,27.62
2022-08-27T21:51:37.976Z,27.62
2022-08-27T21:54:04.841Z,27.61
2022-08-27T21:56:31.680Z,27.61
2022-08-27T21:58:58.236Z,27.61
2022-08-27T22:01:24.875Z,27.61
2022-08-27T22:03:51.908Z,27.60
2022-08-27T22:06:19.397Z,27.61
2022-08-27T22:08:46.091Z,27.62
2022-08-27T22:11:13.365Z,27.61
2022-08-27T22:13:40.472Z,27.60
2022-08-27T22:16:07.928Z,27.61
2022-08-27T22:18:34.646Z,27.55
2022-08-27T22:21:02.579Z,27.61
2022-08-27T22:23:29.176Z,27.60
2022-08-27T22:28:19.064Z,27.60
2022-08-27T22:30:46.247Z,27.58
2022-08-27T22:33:13.434Z,27.60
2022-08-27T22:35:40.081Z,27.61
2022-08-27T22:38:07.585Z,27.60
2022-08-27T22:40:36.361Z,27.61
2022-08-27T22:43:04.115Z,27.61
2022-08-27T22:45:31.057Z,27.61
2022-08-27T22:47:57.849Z,27.61
2022-08-27T22:50:24.960Z,27.59
2022-08-27T22:52:52.057Z,27.60
2022-08-27T22:55:21.551Z,27.61
2022-08-27T22:57:53.646Z,27.60
2022-08-27T23:00:27.400Z,27.60
2022-08-27T23:02:54.527Z,27.61
2022-08-27T23:05:22.025Z,27.61
2022-08-27T23:07:48.789Z,27.61
2022-08-27T23:10:18.752Z,27.61
2022-08-27T23:12:46.659Z,27.60
2022-08-27T23:15:15.424Z,27.60
2022-08-27T23:17:42.089Z,27.60
2022-08-27T23:22:37.552Z,27.60
2022-08-27T23:25:24.790Z,27.58
2022-08-27T23:27:51.347Z,27.59
2022-08-27T23:30:18.330Z,27.59
2022-08-27T23:32:48.290Z,27.59
2022-08-27T23:35:21.755Z,27.59
2022-08-27T23:40:17.715Z,27.58
2022-08-27T23:42:45.136Z,27.59
2022-08-27T23:45:16.033Z,27.58
2022-08-27T23:47:43.058Z,27.57
2022-08-27T23:50:10.932Z,27.59
2022-08-27T23:52:38.699Z,27.59
2022-08-27T23:55:06.565Z,27.59
2022-08-27T23:57:33.256Z,27.58
2022-08-27T23:59:59.915Z,27.58
